North Springfield, Virginia
Current Conditions -  °F | °C
As of 2:58 AM on Monday 22 Dec 2014 (Local Time) from KDAA Reporting Station
Haze Haze  
Wind Chill: 29°   Ceiling: 4700
Heat Index: 29°   Visibility: 4mi
Dew Point: 25°   Wind: 0mph
Humidity: 87%   Direction: NA
Pressure: 30.33"   Gusts: NA
Location:  38.8058°N, 77.2071°W
Report Text: KDAA 220758Z AUTO 00000KT 4SM R32/4500FT BR OVC047 M02/M04 A3033 RMK AO2 SLP275 T10181037
Loading
Personal Weather Stations






























Interactive Weather Map New forecast layout! Learn more

10-Day Weather Forecast

Advertisements
Track Severe Weather on mobile